Time;durP1;ratioP1;P1;durP2;ratioP2;P2;SDS_P1;SDS_P2;PMS_P1;PMS_P2;Temp;Humidity;BMP_temperature;BMP_pressure;BME280_temperature;BME280_humidity;BME280_pressure;Samples;Min_cycle;Max_cycle;Signal;HPM_P1;HPM_P2
2023/11/17 00:01:30;;;;;;;0.00;0.00;;;23.40;43.60;;;;;;5052037;28;20206;-55
2023/11/17 00:04:01;;;;;;;0.00;0.00;;;23.40;44.10;;;;;;5050279;28;20603;-55
2023/11/17 00:06:33;;;;;;;0.00;0.00;;;23.40;44.00;;;;;;5049972;28;20620;-56
2023/11/17 00:09:06;;;;;;;0.00;0.00;;;23.50;44.00;;;;;;5050976;28;20250;-54
2023/11/17 00:11:37;;;;;;;0.00;0.00;;;23.50;44.10;;;;;;5050254;28;20195;-48
2023/11/17 00:14:08;;;;;;;0.00;0.00;;;23.50;44.10;;;;;;5051208;28;20214;-53
2023/11/17 00:16:38;;;;;;;0.00;0.00;;;23.60;44.10;;;;;;5050717;28;20222;-56
2023/11/17 00:19:09;;;;;;;0.00;0.00;;;23.70;44.10;;;;;;5050295;28;20701;-56
2023/11/17 00:21:39;;;;;;;0.00;0.00;;;23.70;44.10;;;;;;5050829;28;20199;-54
2023/11/17 00:24:12;;;;;;;0.10;0.10;;;23.70;44.10;;;;;;5050437;28;20199;-56
2023/11/17 00:26:44;;;;;;;0.00;0.00;;;23.70;44.10;;;;;;5067918;28;20218;-55
2023/11/17 00:29:14;;;;;;;0.00;0.00;;;23.80;44.20;;;;;;5070584;28;20205;-47
2023/11/17 00:31:45;;;;;;;0.00;0.00;;;23.90;44.30;;;;;;5069960;28;20199;-55
2023/11/17 00:34:16;;;;;;;0.05;0.05;;;23.90;44.40;;;;;;5067025;28;20196;-56
2023/11/17 00:36:49;;;;;;;0.00;0.00;;;24.00;44.50;;;;;;5071855;28;20650;-54
2023/11/17 00:39:25;;;;;;;0.00;0.00;;;24.00;44.40;;;;;;5074705;28;20203;-55
2023/11/17 00:41:55;;;;;;;0.00;0.00;;;24.00;44.40;;;;;;5060500;28;20261;-52
2023/11/17 00:44:26;;;;;;;0.00;0.00;;;24.10;44.40;;;;;;5054264;28;20666;-54
2023/11/17 00:46:57;;;;;;;0.00;0.00;;;24.10;44.40;;;;;;5054254;28;20723;-55
2023/11/17 00:49:31;;;;;;;0.00;0.00;;;24.10;44.30;;;;;;5053482;28;20196;-55
2023/11/17 00:52:05;;;;;;;0.00;0.00;;;24.20;44.30;;;;;;5054618;28;20196;-56
2023/11/17 00:54:42;;;;;;;0.00;0.00;;;24.20;44.30;;;;;;5053494;28;20655;-54
2023/11/17 00:57:13;;;;;;;0.00;0.00;;;24.20;44.20;;;;;;5053791;28;20253;-49
2023/11/17 00:59:43;;;;;;;0.00;0.00;;;24.20;44.20;;;;;;5052931;28;20206;-56
2023/11/17 01:02:15;;;;;;;0.00;0.00;;;24.20;44.40;;;;;;5047516;28;20199;-49
2023/11/17 01:04:45;;;;;;;0.00;0.00;;;24.20;44.50;;;;;;5054749;28;20196;-56
2023/11/17 01:07:17;;;;;;;0.00;0.00;;;24.30;44.50;;;;;;5054344;28;20231;-57
2023/11/17 01:09:50;;;;;;;0.00;0.00;;;24.30;44.50;;;;;;5073274;28;20625;-52
2023/11/17 01:12:21;;;;;;;0.00;0.00;;;24.40;44.50;;;;;;5053803;28;20207;-55
2023/11/17 01:14:51;;;;;;;0.00;0.00;;;24.40;44.40;;;;;;5054237;28;20253;-56
2023/11/17 01:17:22;;;;;;;0.00;0.00;;;24.40;44.40;;;;;;5032932;28;20692;-55
2023/11/17 01:19:53;;;;;;;0.00;0.00;;;24.40;44.40;;;;;;5040357;28;20223;-47
2023/11/17 01:22:24;;;;;;;0.00;0.00;;;24.50;44.40;;;;;;5034140;28;20192;-48
2023/11/17 01:24:56;;;;;;;0.00;0.00;;;24.50;44.30;;;;;;5033582;28;20200;-57
2023/11/17 01:27:27;;;;;;;0.00;0.00;;;24.50;44.30;;;;;;5048544;28;20675;-56
2023/11/17 01:29:58;;;;;;;0.00;0.00;;;24.50;44.20;;;;;;5052728;28;20183;-51
2023/11/17 01:32:29;;;;;;;0.00;0.00;;;24.50;44.10;;;;;;5040591;28;20199;-54
2023/11/17 01:34:59;;;;;;;0.00;0.00;;;24.50;44.20;;;;;;5053430;28;20234;-55
2023/11/17 01:37:30;;;;;;;0.00;0.00;;;24.60;44.20;;;;;;5044949;28;20215;-50
2023/11/17 01:40:05;;;;;;;0.00;0.00;;;24.50;44.10;;;;;;5052900;28;20203;-56
2023/11/17 01:42:37;;;;;;;0.00;0.00;;;24.60;44.10;;;;;;5052839;28;20274;-51
2023/11/17 01:45:09;;;;;;;0.00;0.00;;;24.60;44.00;;;;;;5072350;28;20560;-50
2023/11/17 01:47:42;;;;;;;0.00;0.00;;;24.50;44.00;;;;;;5051445;28;20273;-56
2023/11/17 01:50:14;;;;;;;0.00;0.00;;;24.60;44.00;;;;;;5053553;28;20199;-51
2023/11/17 01:52:46;;;;;;;0.00;0.00;;;24.60;43.80;;;;;;5053782;28;20229;-55
2023/11/17 01:55:19;;;;;;;0.00;0.00;;;24.60;43.60;;;;;;5053197;28;20238;-55
2023/11/17 01:57:49;;;;;;;0.00;0.00;;;24.60;43.50;;;;;;5052595;28;20238;-56
2023/11/17 02:00:21;;;;;;;0.00;0.00;;;24.50;43.30;;;;;;5053693;28;20196;-55
2023/11/17 02:02:53;;;;;;;0.00;0.00;;;24.50;43.30;;;;;;5052070;28;20230;-54
2023/11/17 02:05:26;;;;;;;0.00;0.00;;;24.50;43.30;;;;;;5053261;28;20199;-48
2023/11/17 02:08:14;;;;;;;0.00;0.00;;;24.40;43.20;;;;;;5052436;28;20227;-51
2023/11/17 02:10:55;;;;;;;0.00;0.00;;;24.40;43.30;;;;;;5052563;28;20219;-49
2023/11/17 02:13:31;;;;;;;0.00;0.00;;;24.30;43.30;;;;;;5052969;28;20199;-50
2023/11/17 02:16:03;;;;;;;0.00;0.00;;;24.30;43.30;;;;;;5052909;28;20191;-49
2023/11/17 02:18:37;;;;;;;0.00;0.00;;;24.20;43.30;;;;;;5052111;28;20267;-55
2023/11/17 02:21:09;;;;;;;0.00;0.00;;;24.20;43.50;;;;;;5052171;28;20230;-56
2023/11/17 02:23:42;;;;;;;0.00;0.00;;;24.20;43.50;;;;;;5052745;28;20203;-56
2023/11/17 02:26:23;;;;;;;0.00;0.00;;;24.10;43.50;;;;;;5051996;28;20715;-49
2023/11/17 02:29:00;;;;;;;0.00;0.00;;;24.00;43.60;;;;;;5052314;28;20225;-57
2023/11/17 02:31:34;;;;;;;0.00;0.00;;;24.10;43.70;;;;;;5052472;28;20200;-53
2023/11/17 02:34:08;;;;;;;0.00;0.00;;;24.00;43.70;;;;;;5052698;28;20286;-46
2023/11/17 02:36:40;;;;;;;0.10;0.10;;;24.00;43.80;;;;;;5061192;28;20197;-48
2023/11/17 02:39:25;;;;;;;0.00;0.00;;;24.00;43.80;;;;;;5072840;28;21173;-56
2023/11/17 02:41:59;;;;;;;0.00;0.00;;;24.00;43.80;;;;;;5070081;28;20568;-48
2023/11/17 02:44:33;;;;;;;0.00;0.00;;;24.00;43.80;;;;;;5071663;28;20194;-44
2023/11/17 02:47:08;;;;;;;0.00;0.00;;;24.00;43.80;;;;;;5063381;28;20226;-47
2023/11/17 02:49:41;;;;;;;0.00;0.00;;;24.00;43.90;;;;;;5051160;28;20235;-54
2023/11/17 02:52:15;;;;;;;0.00;0.00;;;24.00;43.90;;;;;;5066360;28;20203;-50
2023/11/17 02:54:46;;;;;;;0.00;0.00;;;24.00;43.90;;;;;;5072287;28;20199;-51
2023/11/17 02:57:19;;;;;;;0.00;0.00;;;24.00;43.90;;;;;;5070979;28;20219;-53
2023/11/17 02:59:50;;;;;;;0.00;0.00;;;24.00;43.90;;;;;;5064313;28;20192;-55
2023/11/17 03:02:23;;;;;;;0.00;0.00;;;24.10;43.90;;;;;;5067005;28;20247;-51
2023/11/17 03:04:54;;;;;;;0.00;0.00;;;24.10;43.90;;;;;;5071324;28;20218;-52
2023/11/17 03:07:25;;;;;;;0.00;0.00;;;24.10;43.80;;;;;;5071285;28;20219;-54
2023/11/17 03:09:55;;;;;;;0.10;0.10;;;24.10;43.80;;;;;;5071195;28;20198;-52
2023/11/17 03:12:27;;;;;;;0.00;0.00;;;24.20;43.90;;;;;;5055095;28;20203;-54
2023/11/17 03:14:58;;;;;;;0.00;0.00;;;24.20;43.90;;;;;;5055420;28;20219;-48
2023/11/17 03:17:30;;;;;;;0.00;0.00;;;24.20;43.80;;;;;;5056053;28;20388;-51
2023/11/17 03:20:01;;;;;;;0.00;0.00;;;24.20;43.80;;;;;;5051680;28;20203;-50
2023/11/17 03:22:32;;;;;;;0.00;0.00;;;24.20;43.80;;;;;;5051495;28;20195;-50
2023/11/17 03:25:02;;;;;;;0.00;0.00;;;24.20;43.80;;;;;;5051841;28;20718;-53
2023/11/17 03:27:33;;;;;;;0.00;0.00;;;24.20;43.80;;;;;;5051017;28;20223;-53
2023/11/17 03:30:09;;;;;;;0.00;0.00;;;24.20;43.80;;;;;;5050350;28;20204;-50
2023/11/17 03:32:42;;;;;;;0.00;0.00;;;24.20;43.70;;;;;;5051092;28;20708;-52
2023/11/17 03:35:13;;;;;;;0.00;0.00;;;24.20;43.70;;;;;;5051493;28;20206;-56
2023/11/17 03:37:46;;;;;;;0.00;0.00;;;24.20;43.70;;;;;;5050812;28;20234;-56
2023/11/17 03:40:17;;;;;;;0.00;0.00;;;24.20;43.70;;;;;;5043509;28;20204;-56
2023/11/17 03:42:48;;;;;;;0.00;0.00;;;24.30;43.60;;;;;;5065698;28;20191;-53
2023/11/17 03:45:19;;;;;;;0.00;0.00;;;24.30;43.70;;;;;;5069379;28;20198;-56
2023/11/17 03:47:52;;;;;;;0.00;0.00;;;24.20;43.60;;;;;;5055030;28;20216;-57
2023/11/17 03:50:23;;;;;;;0.00;0.00;;;24.30;43.70;;;;;;5049949;28;20191;-57
2023/11/17 03:52:54;;;;;;;0.00;0.00;;;24.30;43.60;;;;;;5047821;28;20245;-54
2023/11/17 03:55:24;;;;;;;0.00;0.00;;;24.30;43.60;;;;;;5051060;28;20195;-57
2023/11/17 03:57:55;;;;;;;0.00;0.00;;;24.30;43.60;;;;;;5050041;28;20702;-56
2023/11/17 04:00:27;;;;;;;0.00;0.00;;;24.30;43.60;;;;;;5050438;28;20196;-57
2023/11/17 04:03:01;;;;;;;0.00;0.00;;;24.30;43.60;;;;;;5050729;28;20203;-56
2023/11/17 04:05:31;;;;;;;0.10;0.10;;;24.30;43.60;;;;;;5051551;28;20206;-55
2023/11/17 04:08:02;;;;;;;0.00;0.00;;;24.30;43.60;;;;;;5050176;28;20813;-54
2023/11/17 04:10:33;;;;;;;0.00;0.00;;;24.30;43.50;;;;;;5051208;28;20203;-56
2023/11/17 04:13:03;;;;;;;0.00;0.00;;;24.30;43.50;;;;;;5049717;28;20191;-55
2023/11/17 04:15:35;;;;;;;0.03;0.03;;;24.30;43.50;;;;;;5050453;28;20192;-55
2023/11/17 04:18:07;;;;;;;0.00;0.00;;;24.30;43.50;;;;;;5050697;28;20769;-57
2023/11/17 04:20:38;;;;;;;0.00;0.00;;;24.30;43.50;;;;;;5050801;28;20210;-54
2023/11/17 04:23:08;;;;;;;0.00;0.00;;;24.30;43.50;;;;;;5051193;28;20252;-56
2023/11/17 04:25:39;;;;;;;0.00;0.00;;;24.30;43.50;;;;;;5051133;28;20281;-55
2023/11/17 04:28:10;;;;;;;0.00;0.00;;;24.30;43.50;;;;;;5049457;28;20227;-50
2023/11/17 04:30:40;;;;;;;0.00;0.00;;;24.30;43.40;;;;;;5050032;28;20199;-56
2023/11/17 04:33:13;;;;;;;0.00;0.00;;;24.30;43.40;;;;;;5050321;28;20709;-53
2023/11/17 04:35:43;;;;;;;0.00;0.00;;;24.30;43.40;;;;;;5050666;28;20199;-54
2023/11/17 04:38:14;;;;;;;0.00;0.00;;;24.30;43.40;;;;;;5051387;28;20207;-55
2023/11/17 04:40:45;;;;;;;0.00;0.00;;;24.30;43.40;;;;;;5050226;28;20194;-52
2023/11/17 04:43:16;;;;;;;0.00;0.00;;;24.30;43.40;;;;;;5049281;28;20196;-48
2023/11/17 04:45:48;;;;;;;0.00;0.00;;;24.30;43.40;;;;;;5049566;28;20648;-50
2023/11/17 04:48:20;;;;;;;0.00;0.00;;;24.30;43.40;;;;;;5050303;28;20231;-56
2023/11/17 04:50:51;;;;;;;0.00;0.00;;;24.30;43.40;;;;;;5050912;28;20567;-49
2023/11/17 04:53:22;;;;;;;0.00;0.00;;;24.30;43.40;;;;;;5050072;28;20198;-56
2023/11/17 04:55:52;;;;;;;0.00;0.00;;;24.30;43.40;;;;;;5049617;28;20208;-53
2023/11/17 04:58:25;;;;;;;0.00;0.00;;;24.30;43.40;;;;;;5049294;28;20226;-55
2023/11/17 05:00:56;;;;;;;0.00;0.00;;;24.30;43.40;;;;;;5048840;28;20425;-55
2023/11/17 05:03:29;;;;;;;0.00;0.00;;;24.20;43.40;;;;;;5049818;28;20191;-56
2023/11/17 05:05:59;;;;;;;0.00;0.00;;;24.20;43.50;;;;;;5049894;28;20192;-57
2023/11/17 05:08:30;;;;;;;0.00;0.00;;;24.30;43.50;;;;;;5049920;28;20622;-57
2023/11/17 05:11:04;;;;;;;0.00;0.00;;;24.20;43.50;;;;;;5049953;28;20283;-56
2023/11/17 05:13:34;;;;;;;0.00;0.00;;;24.20;43.50;;;;;;5049679;28;20191;-57
2023/11/17 05:16:05;;;;;;;0.00;0.00;;;24.20;43.50;;;;;;5048304;22;20224;-54
2023/11/17 05:18:38;;;;;;;0.00;0.00;;;24.20;43.50;;;;;;5012960;28;20227;-51
2023/11/17 05:21:09;;;;;;;0.00;0.00;;;24.20;43.50;;;;;;5010494;28;20204;-53
2023/11/17 05:23:39;;;;;;;0.00;0.00;;;24.20;43.60;;;;;;5021195;28;20192;-54
2023/11/17 05:26:10;;;;;;;0.00;0.00;;;24.10;43.50;;;;;;5033246;28;20202;-53
2023/11/17 05:28:41;;;;;;;0.00;0.00;;;24.10;43.50;;;;;;5032806;28;20220;-50
2023/11/17 05:31:12;;;;;;;0.00;0.00;;;24.10;43.60;;;;;;5033549;28;20733;-53
2023/11/17 05:33:44;;;;;;;0.00;0.00;;;24.10;43.50;;;;;;5032972;28;20198;-53
2023/11/17 05:36:16;;;;;;;0.00;0.00;;;24.10;43.60;;;;;;5032700;28;20192;-49
2023/11/17 05:38:48;;;;;;;0.00;0.00;;;24.10;43.60;;;;;;5032282;28;20216;-52
2023/11/17 05:41:22;;;;;;;0.00;0.00;;;24.10;43.60;;;;;;5032550;28;20284;-46
2023/11/17 05:43:53;;;;;;;0.00;0.00;;;24.00;43.50;;;;;;5027274;28;20406;-54
2023/11/17 05:46:24;;;;;;;0.10;0.10;;;24.00;43.50;;;;;;5033782;28;20203;-53
2023/11/17 05:48:56;;;;;;;0.00;0.00;;;24.00;43.60;;;;;;5014439;28;20225;-51
2023/11/17 05:51:27;;;;;;;0.03;0.03;;;24.00;43.60;;;;;;5027694;28;20222;-53
2023/11/17 05:53:58;;;;;;;0.10;0.10;;;24.00;43.60;;;;;;5033021;28;20222;-51
2023/11/17 05:56:29;;;;;;;0.00;0.00;;;23.90;43.60;;;;;;5030241;28;20203;-53
2023/11/17 05:58:59;;;;;;;0.00;0.00;;;23.90;43.60;;;;;;5013784;28;20208;-51
2023/11/17 06:01:30;;;;;;;0.00;0.00;;;23.90;43.60;;;;;;5013120;28;20200;-53
2023/11/17 06:04:03;;;;;;;0.00;0.00;;;23.80;43.60;;;;;;5017532;28;20656;-49
2023/11/17 06:06:34;;;;;;;0.00;0.00;;;23.80;43.60;;;;;;5032779;28;20196;-50
2023/11/17 06:09:05;;;;;;;0.00;0.00;;;23.80;43.70;;;;;;5032733;28;20219;-54
2023/11/17 06:11:36;;;;;;;0.00;0.00;;;23.80;43.70;;;;;;5032517;28;20822;-51
2023/11/17 06:14:10;;;;;;;0.00;0.00;;;23.80;43.70;;;;;;5032030;28;20673;-52
2023/11/17 06:16:55;;;;;;;0.00;0.00;;;23.80;43.70;;;;;;5070512;28;20272;-57
2023/11/17 06:19:28;;;;;;;0.00;0.00;;;23.70;43.70;;;;;;5072770;28;20556;-56
2023/11/17 06:21:59;;;;;;;0.00;0.00;;;23.70;43.60;;;;;;5072613;28;20203;-53
2023/11/17 06:24:29;;;;;;;0.00;0.00;;;23.70;43.60;;;;;;5072259;28;20283;-51
2023/11/17 06:27:00;;;;;;;0.00;0.00;;;23.70;43.70;;;;;;5087201;28;20197;-46
2023/11/17 06:29:31;;;;;;;0.00;0.00;;;23.70;43.70;;;;;;5077499;28;20575;-50
2023/11/17 06:32:02;;;;;;;0.00;0.00;;;23.70;43.70;;;;;;5092206;28;20205;-51
2023/11/17 06:34:36;;;;;;;0.00;0.00;;;23.60;43.60;;;;;;5072491;28;20662;-52
2023/11/17 06:37:07;;;;;;;0.00;0.00;;;23.60;43.60;;;;;;5072697;28;20199;-57
2023/11/17 06:39:39;;;;;;;0.03;0.03;;;23.60;43.60;;;;;;5092246;28;20217;-57
2023/11/17 06:42:10;;;;;;;0.00;0.00;;;23.50;43.50;;;;;;5077710;28;20205;-55
2023/11/17 06:44:41;;;;;;;0.00;0.00;;;23.50;43.60;;;;;;5071736;28;20195;-55
2023/11/17 06:47:11;;;;;;;0.00;0.00;;;23.50;43.60;;;;;;5071685;28;20229;-58
2023/11/17 06:49:44;;;;;;;0.10;0.10;;;23.50;43.60;;;;;;5071380;28;20690;-47
2023/11/17 06:52:15;;;;;;;0.00;0.00;;;23.40;43.60;;;;;;5071817;28;20274;-51
2023/11/17 06:54:46;;;;;;;0.00;0.00;;;23.40;43.60;;;;;;5078916;28;20637;-51
2023/11/17 06:57:16;;;;;;;0.00;0.00;;;23.40;43.70;;;;;;5077173;28;20272;-51
2023/11/17 06:59:47;;;;;;;0.00;0.00;;;23.40;43.70;;;;;;5072405;28;20194;-58
2023/11/17 07:02:18;;;;;;;0.00;0.00;;;23.40;43.70;;;;;;5072146;28;20210;-51
2023/11/17 07:04:51;;;;;;;0.00;0.00;;;23.30;43.70;;;;;;5072130;28;20197;-45
2023/11/17 07:07:24;;;;;;;0.00;0.00;;;23.30;43.70;;;;;;5071851;28;20315;-49
2023/11/17 07:09:54;;;;;;;0.10;0.10;;;23.30;43.70;;;;;;5072638;28;20313;-50
2023/11/17 07:12:26;;;;;;;0.00;0.00;;;23.30;43.60;;;;;;5071242;28;20267;-54
2023/11/17 07:14:58;;;;;;;0.00;0.00;;;23.30;43.60;;;;;;5072153;28;20207;-46
2023/11/17 07:17:29;;;;;;;0.00;0.00;;;23.30;43.60;;;;;;5071374;28;20822;-51
2023/11/17 07:20:09;;;;;;;0.00;0.00;;;23.20;43.60;;;;;;5078661;28;20190;-56
2023/11/17 07:22:40;;;;;;;0.10;0.10;;;23.20;43.60;;;;;;5091968;28;20193;-58
2023/11/17 07:25:13;;;;;;;0.00;0.00;;;23.20;43.60;;;;;;5091786;28;20251;-57
2023/11/17 07:27:44;;;;;;;0.10;0.10;;;23.20;43.60;;;;;;5091231;28;20217;-55
2023/11/17 07:30:15;;;;;;;0.00;0.00;;;23.10;43.60;;;;;;5091809;28;20221;-52
2023/11/17 07:32:46;;;;;;;0.00;0.00;;;23.10;43.60;;;;;;5091702;28;20194;-59
2023/11/17 07:35:18;;;;;;;0.00;0.00;;;23.10;43.60;;;;;;5092594;28;20462;-56
2023/11/17 07:37:49;;;;;;;0.00;0.00;;;23.10;43.60;;;;;;5091951;28;20305;-59
2023/11/17 07:40:20;;;;;;;0.00;0.00;;;23.00;43.60;;;;;;5091817;28;20206;-57
2023/11/17 07:42:49;;;;;;;0.00;0.00;;;23.00;43.60;;;;;;5090435;28;20198;-57
2023/11/17 07:45:20;;;;;;;0.00;0.00;;;23.00;43.60;;;;;;5088914;28;20194;-55
2023/11/17 07:47:51;;;;;;;0.10;0.10;;;23.00;43.60;;;;;;5091700;28;20214;-54
2023/11/17 07:50:23;;;;;;;0.00;0.00;;;23.00;43.60;;;;;;5091690;28;20626;-55
2023/11/17 07:52:54;;;;;;;0.00;0.00;;;22.90;43.60;;;;;;5091956;28;20198;-57
2023/11/17 07:55:25;;;;;;;0.00;0.00;;;22.90;43.60;;;;;;5091527;28;20195;-50
2023/11/17 07:57:56;;;;;;;0.05;0.05;;;22.90;43.60;;;;;;5087142;28;20210;-58
2023/11/17 08:00:27;;;;;;;0.00;0.00;;;22.90;43.60;;;;;;5090919;28;20293;-55
2023/11/17 08:02:59;;;;;;;0.00;0.00;;;22.90;43.60;;;;;;5091137;28;20290;-54
2023/11/17 08:05:31;;;;;;;0.00;0.00;;;22.90;43.60;;;;;;5091300;28;20226;-53
2023/11/17 08:08:02;;;;;;;0.00;0.00;;;22.80;43.50;;;;;;5091600;28;20685;-58
2023/11/17 08:10:32;;;;;;;0.00;0.00;;;22.80;43.60;;;;;;5090433;28;20228;-57
2023/11/17 08:13:04;;;;;;;0.00;0.00;;;22.80;43.60;;;;;;5070143;28;20191;-58
2023/11/17 08:15:35;;;;;;;0.00;0.00;;;22.80;43.60;;;;;;5071171;28;20257;-54
2023/11/17 08:18:06;;;;;;;0.00;0.00;;;22.70;43.50;;;;;;5071521;28;20222;-58
2023/11/17 08:20:41;;;;;;;0.00;0.00;;;22.70;43.50;;;;;;5082932;28;20563;-56
2023/11/17 08:23:11;;;;;;;0.00;0.00;;;22.70;43.50;;;;;;5091107;28;20857;-53
2023/11/17 08:25:42;;;;;;;0.00;0.00;;;22.70;43.50;;;;;;5090686;28;20205;-57
2023/11/17 08:28:15;;;;;;;0.00;0.00;;;22.70;43.60;;;;;;5090862;28;20268;-57
2023/11/17 08:30:45;;;;;;;0.00;0.00;;;22.60;43.60;;;;;;5091084;28;20198;-58
2023/11/17 08:33:16;;;;;;;0.00;0.00;;;22.60;43.50;;;;;;5091125;28;20605;-55
2023/11/17 08:35:49;;;;;;;0.00;0.00;;;22.60;43.60;;;;;;5079035;28;20194;-57
2023/11/17 08:38:20;;;;;;;0.00;0.00;;;22.60;43.60;;;;;;5084085;28;20217;-54
2023/11/17 08:40:55;;;;;;;0.00;0.00;;;22.60;43.60;;;;;;5085081;28;20195;-55
2023/11/17 08:43:27;;;;;;;0.00;0.00;;;22.60;43.70;;;;;;5078727;28;20657;-53
2023/11/17 08:45:57;;;;;;;0.00;0.00;;;22.50;43.70;;;;;;5090813;28;20213;-47
2023/11/17 08:48:30;;;;;;;0.00;0.00;;;22.50;43.70;;;;;;5072100;28;20700;-53
2023/11/17 08:51:02;;;;;;;0.00;0.00;;;22.50;43.70;;;;;;5070762;28;20207;-54
2023/11/17 08:53:34;;;;;;;0.00;0.00;;;22.50;43.80;;;;;;5082682;28;20281;-47
2023/11/17 08:56:06;;;;;;;0.00;0.00;;;22.50;43.70;;;;;;5090169;28;20612;-49
2023/11/17 08:58:36;;;;;;;0.00;0.00;;;22.40;43.70;;;;;;5093236;28;20262;-47
2023/11/17 09:01:07;;;;;;;0.00;0.00;;;22.40;43.70;;;;;;5094191;28;20232;-54
2023/11/17 09:03:38;;;;;;;0.00;0.00;;;22.40;43.80;;;;;;5094283;28;20194;-54
2023/11/17 09:06:11;;;;;;;0.00;0.00;;;22.40;43.70;;;;;;5093890;28;20212;-57
2023/11/17 09:08:41;;;;;;;0.00;0.00;;;22.40;43.80;;;;;;5075732;28;20215;-57
2023/11/17 09:11:10;;;;;;;0.00;0.00;;;22.30;43.70;;;;;;5073442;28;20198;-56
2023/11/17 09:13:41;;;;;;;0.00;0.00;;;22.30;43.70;;;;;;5074428;28;20217;-57
2023/11/17 09:16:12;;;;;;;0.00;0.00;;;22.30;43.70;;;;;;5083595;28;20202;-53
2023/11/17 09:18:43;;;;;;;0.00;0.00;;;22.30;43.70;;;;;;5084762;28;20701;-53
2023/11/17 09:21:16;;;;;;;0.05;0.05;;;22.30;43.70;;;;;;5092789;28;20558;-53
2023/11/17 09:23:46;;;;;;;0.00;0.00;;;22.20;43.70;;;;;;5093803;28;20205;-53
2023/11/17 09:26:17;;;;;;;0.10;0.10;;;22.20;43.70;;;;;;5083982;28;20282;-56
2023/11/17 09:28:48;;;;;;;0.00;0.00;;;22.20;43.70;;;;;;5072318;28;20241;-53
2023/11/17 09:31:18;;;;;;;0.00;0.00;;;22.20;43.70;;;;;;5080838;28;20240;-56
2023/11/17 09:33:49;;;;;;;0.00;0.00;;;22.20;43.70;;;;;;5082222;28;20202;-56
2023/11/17 09:36:21;;;;;;;0.00;0.00;;;22.20;43.70;;;;;;5085103;28;20201;-53
2023/11/17 09:38:55;;;;;;;0.00;0.00;;;22.20;43.70;;;;;;5073722;28;20747;-58
2023/11/17 09:41:27;;;;;;;0.00;0.00;;;22.10;43.70;;;;;;5084028;28;20536;-54
2023/11/17 09:44:01;;;;;;;0.00;0.00;;;22.10;43.70;;;;;;5073617;28;20203;-56
2023/11/17 09:46:35;;;;;;;0.05;0.05;;;22.10;43.80;;;;;;5083189;28;20194;-57
2023/11/17 09:49:07;;;;;;;0.00;0.00;;;22.10;43.70;;;;;;5093625;28;20222;-57
2023/11/17 09:51:40;;;;;;;0.00;0.00;;;22.10;43.80;;;;;;5082681;28;20191;-58
2023/11/17 09:54:14;;;;;;;0.00;0.00;;;22.00;43.70;;;;;;5073412;28;20195;-55
2023/11/17 09:56:49;;;;;;;0.00;0.00;;;22.00;43.70;;;;;;5072284;28;20666;-54
2023/11/17 09:59:20;;;;;;;0.00;0.00;;;22.00;43.70;;;;;;5075546;28;20209;-55
2023/11/17 10:01:52;;;;;;;0.00;0.00;;;22.00;43.70;;;;;;5078693;28;20195;-55
2023/11/17 10:04:24;;;;;;;0.00;0.00;;;22.00;43.70;;;;;;5084240;28;20542;-57
2023/11/17 10:06:59;;;;;;;0.03;0.03;;;21.90;44.30;;;;;;5091673;28;20273;-53
2023/11/17 10:09:30;;;;;;;0.03;0.03;;;21.90;43.70;;;;;;5091347;28;20443;-57
2023/11/17 10:12:01;;;;;;;0.00;0.00;;;21.90;43.70;;;;;;5083835;28;20202;-55
2023/11/17 10:14:33;;;;;;;0.00;0.00;;;21.90;43.80;;;;;;5093248;28;20211;-45
2023/11/17 10:17:07;;;;;;;0.10;0.10;;;21.90;43.80;;;;;;5080273;28;20206;-55
2023/11/17 10:19:41;;;;;;;0.10;0.10;;;21.90;43.80;;;;;;5072490;28;20207;-58
2023/11/17 10:22:14;;;;;;;0.00;0.00;;;21.90;43.80;;;;;;5089603;28;20285;-57
2023/11/17 10:24:46;;;;;;;0.10;0.10;;;21.80;43.70;;;;;;5092062;28;20561;-43
2023/11/17 10:27:20;;;;;;;0.10;0.10;;;21.80;43.80;;;;;;5088875;28;20297;-56
2023/11/17 10:29:51;;;;;;;0.00;0.00;;;21.80;43.80;;;;;;5092472;28;20260;-44
2023/11/17 10:32:28;;;;;;;0.10;0.10;;;21.80;43.80;;;;;;5086802;28;20182;-57
2023/11/17 10:35:20;;;;;;;0.00;0.00;;;21.80;43.80;;;;;;5072327;28;20226;-57
2023/11/17 10:37:55;;;;;;;0.03;0.03;;;21.70;43.80;;;;;;5073615;28;20209;-47
2023/11/17 10:40:27;;;;;;;0.00;0.00;;;21.70;43.80;;;;;;5092968;28;20194;-47
2023/11/17 10:43:09;;;;;;;0.00;0.00;;;21.70;43.80;;;;;;5090984;28;20187;-45
2023/11/17 10:45:41;;;;;;;0.10;0.10;;;21.70;43.80;;;;;;5092885;28;20240;-47
2023/11/17 10:48:13;;;;;;;0.00;0.00;;;21.70;43.80;;;;;;5072178;28;20214;-52
2023/11/17 10:50:44;;;;;;;0.10;0.10;;;21.70;43.80;;;;;;5072345;28;20227;-57
2023/11/17 10:53:20;;;;;;;0.00;0.00;;;21.60;43.80;;;;;;5091538;28;20665;-55
2023/11/17 10:55:53;;;;;;;0.10;0.10;;;21.60;43.80;;;;;;5092255;28;20241;-48
2023/11/17 10:58:24;;;;;;;0.00;0.00;;;21.60;43.80;;;;;;5071519;28;20218;-47
2023/11/17 11:00:56;;;;;;;0.00;0.00;;;21.60;43.80;;;;;;5087875;28;20669;-46
2023/11/17 11:03:29;;;;;;;0.08;0.08;;;21.60;43.80;;;;;;5074647;28;20195;-47
2023/11/17 11:06:00;;;;;;;0.00;0.00;;;21.60;43.80;;;;;;5091139;28;20202;-44
2023/11/17 11:08:34;;;;;;;0.10;0.10;;;21.60;43.80;;;;;;5071439;28;20214;-44
2023/11/17 11:11:04;;;;;;;0.10;0.10;;;21.50;43.80;;;;;;5070933;28;20234;-51
2023/11/17 11:13:36;;;;;;;0.00;0.00;;;21.50;43.80;;;;;;5076994;28;20189;-48
2023/11/17 11:16:10;;;;;;;0.00;0.00;;;21.50;43.80;;;;;;5090747;28;20205;-42
2023/11/17 11:18:47;;;;;;;0.00;0.00;;;21.50;43.80;;;;;;5081660;28;20217;-44
2023/11/17 11:21:19;;;;;;;0.00;0.00;;;21.50;43.80;;;;;;5091840;28;20205;-48
2023/11/17 11:23:58;;;;;;;0.00;0.00;;;21.50;43.80;;;;;;5092881;28;20244;-49
2023/11/17 11:26:30;;;;;;;0.00;0.00;;;21.40;43.80;;;;;;5090472;28;20194;-51
2023/11/17 11:29:04;;;;;;;0.10;0.10;;;21.40;43.80;;;;;;5091787;28;20222;-51
2023/11/17 11:31:35;;;;;;;0.10;0.10;;;21.40;43.80;;;;;;5092350;28;20584;-51
2023/11/17 11:34:06;;;;;;;0.08;0.08;;;21.40;43.80;;;;;;5092322;28;20676;-51
2023/11/17 11:36:37;;;;;;;0.00;0.00;;;21.40;43.80;;;;;;5092261;28;20201;-51
2023/11/17 11:39:10;;;;;;;0.00;0.00;;;21.40;43.80;;;;;;5092079;28;20216;-51
2023/11/17 11:41:41;;;;;;;0.10;0.10;;;21.40;43.80;;;;;;5081310;28;20268;-52
2023/11/17 11:44:12;;;;;;;0.00;0.00;;;21.30;43.80;;;;;;5077378;28;20183;-51
2023/11/17 11:46:43;;;;;;;0.03;0.03;;;21.30;43.80;;;;;;5083141;28;20187;-51
2023/11/17 11:49:19;;;;;;;0.00;0.00;;;21.30;43.80;;;;;;5080522;28;20728;-51
2023/11/17 11:51:56;;;;;;;0.00;0.00;;;21.30;43.80;;;;;;5079984;28;20533;-52
2023/11/17 11:54:31;;;;;;;0.00;0.00;;;21.30;43.80;;;;;;5079915;28;20201;-51
2023/11/17 11:57:02;;;;;;;0.10;0.10;;;21.30;43.80;;;;;;5080398;28;20285;-53
2023/11/17 11:59:36;;;;;;;0.10;0.10;;;21.30;43.80;;;;;;5081762;28;20186;-57
2023/11/17 12:02:07;;;;;;;0.10;0.10;;;21.30;43.80;;;;;;5082419;28;20666;-58
2023/11/17 12:04:39;;;;;;;0.10;0.10;;;21.30;43.80;;;;;;5080840;28;20198;-57
2023/11/17 12:07:37;;;;;;;0.00;0.00;;;21.20;43.70;;;;;;5082922;28;20211;-56
2023/11/17 12:10:15;;;;;;;0.00;0.00;;;21.20;43.80;;;;;;5082035;28;20258;-56
2023/11/17 12:12:48;;;;;;;0.00;0.00;;;21.20;43.80;;;;;;5081917;28;20186;-58
2023/11/17 12:15:20;;;;;;;0.05;0.05;;;21.20;43.80;;;;;;5081703;28;20195;-56
2023/11/17 12:18:00;;;;;;;0.00;0.00;;;21.20;43.80;;;;;;5079932;28;20203;-57
2023/11/17 12:20:33;;;;;;;0.00;0.00;;;21.20;43.80;;;;;;5079622;28;20587;-56
2023/11/17 12:23:05;;;;;;;0.00;0.00;;;21.10;43.80;;;;;;5080028;28;20197;-54
2023/11/17 12:25:38;;;;;;;0.00;0.00;;;21.10;43.80;;;;;;5080128;28;20186;-58
2023/11/17 12:28:11;;;;;;;0.00;0.00;;;21.10;43.80;;;;;;5079386;28;20210;-57
2023/11/17 12:30:42;;;;;;;0.10;0.10;;;21.10;43.80;;;;;;5080355;28;20217;-54
2023/11/17 12:33:14;;;;;;;0.00;0.00;;;21.10;43.80;;;;;;5084312;28;20243;-57
2023/11/17 12:35:44;;;;;;;0.10;0.10;;;21.00;43.80;;;;;;5085643;28;20195;-58
2023/11/17 12:38:16;;;;;;;0.00;0.00;;;21.00;43.80;;;;;;5084339;28;20220;-57
2023/11/17 12:41:02;;;;;;;0.00;0.00;;;21.00;43.80;;;;;;5086585;28;20248;-54
2023/11/17 12:43:34;;;;;;;0.00;0.00;;;21.00;43.80;;;;;;5085941;28;20597;-57
2023/11/17 12:46:05;;;;;;;0.00;0.00;;;21.00;43.70;;;;;;5085556;28;20219;-57
2023/11/17 12:48:36;;;;;;;0.00;0.00;;;21.00;43.80;;;;;;5083938;28;20210;-55
2023/11/17 12:51:07;;;;;;;0.00;0.00;;;21.00;43.80;;;;;;5083703;28;20685;-55
2023/11/17 12:53:42;;;;;;;0.03;0.03;;;21.00;43.80;;;;;;5084215;28;20206;-55
2023/11/17 12:56:16;;;;;;;0.00;0.00;;;20.90;43.70;;;;;;5083583;28;20187;-57
2023/11/17 12:58:46;;;;;;;0.10;0.10;;;21.00;43.80;;;;;;5083442;28;20206;-55
2023/11/17 13:01:18;;;;;;;0.00;0.00;;;20.90;43.70;;;;;;5084308;28;20187;-54
2023/11/17 13:03:49;;;;;;;0.00;0.00;;;20.90;43.70;;;;;;5083531;28;20217;-55
2023/11/17 13:06:23;;;;;;;0.00;0.00;;;20.90;43.70;;;;;;5084369;28;20226;-53
2023/11/17 13:08:55;;;;;;;0.00;0.00;;;20.90;43.70;;;;;;5083390;28;20242;-55
2023/11/17 13:11:32;;;;;;;0.00;0.00;;;20.90;43.70;;;;;;5085379;28;20225;-56
2023/11/17 13:14:03;;;;;;;0.10;0.10;;;20.90;43.70;;;;;;5084507;28;20692;-57